Página principal
METAR-TAF:

METAR-TAF

Aeroportos :

Aeroporto Internacional Henri Coandă

Bucareste, Roménia

latitude: 44-33N, longitude: 026-06E, altura: 95 m

Observação actual do tempo

O boletim foi feito há 19 minutos, às 19:00 UTC
Vento 9 kt de nordeste
Temperatura 17°C
Humidade 63%
Pressão 1021 hPa
Visibilidade 10 km ou mais
sem nuvens abaixo de 1500 metros e sem cumulonimbus

METAR: LROP 171900Z 04009KT CAVOK 17/10 Q1021 NOSIG

Hora: 22:19 (19:19 UTC)

Previsão

O boletim foi feito há 2 horas e 19 minutos, às 17:00 UTC
Previsão válida de 17 às 18 UTC a 18 às 18 UTC
Vento 4 kt com direcção variável
Visibilidade 10 km ou mais
sem nuvens abaixo de 1500 metros e sem cumulonimbus
Tornando-se
de 18 às 06 UTC a 18 às 08 UTC
Vento 10 kt de es-nordeste

TAF: LROP 171700Z 1718/1818 VRB04KT CAVOK BECMG 1806/1808 06010KT

Observações e previsões do tempo de mais de 4000 aeroportos (mensagens METAR e TAF).

As estações disponíveis são os pontos amarelos e vermelhos sobre o mapa.

Mova o rato sobre o mapa para ver o nome da estação.

Depois clique no ponto para visualizar as observações e previsões meteorológicas.

Para alterar o mapa : clique nos botões verdes com uma cruz preta para aumentar o zoom; no botão verde com uma pitada de zoom; ou nas setas verdes para mapas adjacentes.


METAR-TAF: